Stations météo

réclame
Mon MeteoGroup
Feldberg/Schwarzwald, Allemagne (10908): Température de l'air & dewpoint: 12.02.2019 17:00:00 - 18.02.2019 17:00:00 (CET)Feldberg/Schwarzwald, Allemagne (10908): Température de l'air 5cm & Température de l'air -5cm: 12.02.2019 17:00:00 - 18.02.2019 17:00:00 (CET)Feldberg/Schwarzwald, Allemagne (10908): Température de l'air -20cm & Température de l'air -100cm: 12.02.2019 17:00:00 - 18.02.2019 17:00:00 (CET)Feldberg/Schwarzwald, Allemagne (10908): Vitesse du vent & gusts: 12.02.2019 17:00:00 - 18.02.2019 17:00:00 (CET)Feldberg/Schwarzwald, Allemagne (10908): Direction du vent: 12.02.2019 17:00:00 - 18.02.2019 17:00:00 (CET)Feldberg/Schwarzwald, Allemagne (10908): visibility: 12.02.2019 17:00:00 - 18.02.2019 17:00:00 (CET)Feldberg/Schwarzwald, Allemagne (10908): Ensoleillement: 12.02.2019 17:00:00 - 18.02.2019 17:00:00 (CET)Feldberg/Schwarzwald, Allemagne (10908): Quantités de précipitations: 12.02.2019 17:00:00 - 18.02.2019 17:00:00 (CET)
Date & Time tt [°C] td [°C] tt 5cm [°C] tt -5cm [°C] tt -20cm [°C] tt -100cm [°C] ff [km/h] ff [knt] fx [km/h] fx [knt] dd vv [km] sd [min] rr [mm]
18.02.2019 17:00:00 7,2 -6,7 -0,2 0,0 0,4 2,2 15 8 17 9 S 75 60 -
18.02.2019 16:00:00 8,5 -8,0 -0,2 0,0 0,4 2,2 9 5 18 10 S 66 60 -
18.02.2019 15:00:00 8,5 -7,1 -0,2 0,0 0,4 2,2 10 5 16 8 S 54 60 -
18.02.2019 14:00:00 8,4 -9,7 -0,2 0,0 0,4 2,2 12 6 16 8 S 59 60 -
18.02.2019 13:00:00 8,4 -9,5 -0,2 0,0 0,4 2,2 8 5 16 9 S 45 60 -
18.02.2019 12:00:00 8,3 -10,3 -0,2 0,0 0,4 2,2 7 4 15 8 SSE 55 60 -
18.02.2019 11:00:00 8,3 -10,6 -0,2 0,0 0,4 2,2 9 5 13 7 S 75 60 -
18.02.2019 10:00:00 8,2 -12,6 -0,2 0,0 0,4 2,2 8 5 11 6 S 75 59 -
18.02.2019 09:00:00 8,6 -13,8 -0,2 0,0 0,4 2,2 6 3 9 5 S 75 60 -
18.02.2019 08:00:00 7,5 -13,1 -0,2 0,0 0,4 2,2 8 5 11 6 S 75 4 -
18.02.2019 07:00:00 6,9 -12,1 -0,2 0,0 0,4 2,2 9 5 13 7 S 75 0 0,0
18.02.2019 06:00:00 6,6 -10,6 -0,2 0,0 0,4 2,2 14 8 16 8 S 67 0 0,0
18.02.2019 05:00:00 6,0 -9,0 -0,2 0,0 0,4 2,2 14 7 22 12 SSW 66 0 0,0
18.02.2019 04:00:00 6,8 -10,7 -0,2 0,0 0,4 2,2 18 10 26 14 SW 68 0 0,0
18.02.2019 03:00:00 6,9 -11,1 -0,2 0,0 0,4 2,2 14 8 20 11 SSW 70 0 0,0
18.02.2019 02:00:00 6,9 -10,5 -0,2 0,0 0,4 2,2 13 7 17 9 SSW 72 0 0,0
18.02.2019 01:00:00 7,4 -10,8 -0,2 0,0 0,4 2,2 16 8 19 11 SSW 61 0 0,0
18.02.2019 00:00:00 7,3 -11,0 -0,2 0,0 0,4 2,2 19 10 20 11 SSW 73 0 0,0
17.02.2019 23:00:00 7,5 -12,6 -0,2 0,0 0,4 2,2 16 9 18 10 SSW 75 0 0,0
17.02.2019 22:00:00 7,7 -14,6 -0,2 0,0 0,4 2,2 16 9 24 13 SW 70 0 0,0
17.02.2019 21:00:00 8,1 -17,0 -0,2 0,0 0,4 2,2 18 10 24 13 S 74 0 0,0
17.02.2019 20:00:00 7,8 -14,1 -0,2 0,0 0,4 2,2 19 11 21 11 S 75 0 0,0
17.02.2019 19:00:00 8,2 -14,3 -0,2 0,0 0,4 2,2 18 10 20 11 SSW 71 0 0,0
17.02.2019 18:00:00 8,3 -12,4 -0,2 0,0 0,4 2,2 13 7 16 9 SSW 74 34 0,0
17.02.2019 17:00:00 8,8 -13,0 -0,2 0,0 0,4 2,2 14 7 27 14 SSW 69 60 0,0
17.02.2019 16:00:00 8,8 -12,5 -0,2 0,0 0,4 2,2 21 11 29 16 SSW 75 60 0,0
17.02.2019 15:00:00 8,7 -12,3 -0,2 0,0 0,4 2,2 22 12 31 17 SSW 68 60 0,0
17.02.2019 14:00:00 8,7 -12,2 -0,2 0,0 0,4 2,2 22 12 29 16 SSW 59 60 0,0
17.02.2019 13:00:00 8,3 -13,0 -0,2 0,0 0,4 2,2 18 10 35 19 SSW 75 60 0,0
17.02.2019 12:00:00 7,9 -14,2 -0,2 0,0 0,4 2,2 28 15 38 20 SSW 72 60 0,0
17.02.2019 11:00:00 7,6 -13,8 -0,2 0,0 0,4 2,2 29 16 37 20 SSW 60 60 0,0
17.02.2019 10:00:00 7,7 -14,1 -0,2 0,0 0,4 2,2 27 15 35 19 S 66 60 0,0
17.02.2019 09:00:00 7,4 -15,1 -0,2 0,0 0,4 2,2 28 15 38 21 SSW 73 60 0,0
17.02.2019 08:00:00 7,1 -15,5 -0,2 0,0 0,4 2,2 29 16 40 22 SW 75 2 0,0
17.02.2019 07:00:00 6,8 -15,2 -0,2 0,0 0,4 2,2 35 19 39 21 SSW 75 0 0,0
17.02.2019 06:00:00 6,9 -14,6 -0,2 0,0 0,4 2,2 32 17 38 21 SSW 75 0 0,0
17.02.2019 05:00:00 7,4 -13,2 -0,2 0,0 0,4 2,2 35 19 41 22 SSW 75 0 0,0
17.02.2019 04:00:00 7,0 -12,0 -0,2 0,0 0,4 2,2 29 16 37 20 SSW 74 0 0,0
17.02.2019 03:00:00 8,0 -14,7 -0,2 0,0 0,4 2,2 28 15 30 16 S 75 0 0,0
17.02.2019 02:00:00 8,4 -14,0 -0,2 0,0 0,4 2,2 18 10 19 11 SSW 75 0 0,0
17.02.2019 01:00:00 8,9 -17,6 -0,2 0,0 0,4 2,2 12 6 13 7 SSW 75 0 0,0
17.02.2019 00:00:00 9,4 -16,9 -0,2 0,0 0,4 2,2 9 5 10 5 SW 75 0 0,0
16.02.2019 23:00:00 9,2 -17,9 -0,2 0,0 0,4 2,2 8 4 9 5 SW 75 0 0,0
16.02.2019 22:00:00 9,0 -17,2 -0,2 0,0 0,4 2,2 8 4 11 6 S 75 0 0,0
16.02.2019 21:00:00 9,0 -19,1 -0,2 0,0 0,4 2,2 9 5 9 5 S 73 0 0,0
16.02.2019 20:00:00 9,1 -11,3 -0,2 0,0 0,4 2,2 7 4 11 6 SSE 75 0 0,0
16.02.2019 19:00:00 9,0 -8,7 -0,2 0,0 0,4 2,2 9 5 11 6 SSE 75 0 0,0
16.02.2019 18:00:00 9,2 -8,0 -0,2 0,0 0,4 2,2 7 4 9 5 SE 75 32 0,0
16.02.2019 17:00:00 10,3 -7,7 -0,2 0,0 0,4 2,2 5 3 9 5 SSE 75 60 0,0
16.02.2019 16:00:00 11,3 -8,0 -0,2 0,0 0,4 2,2 5 3 7 4 S 62 60 0,0
16.02.2019 15:00:00 12,3 -13,9 -0,2 0,0 0,4 2,2 3 2 9 5 SW 69 60 0,0
16.02.2019 14:00:00 11,9 -17,8 -0,2 0,0 0,4 2,2 5 3 11 6 W 49 60 0,0
16.02.2019 13:00:00 10,5 -20,8 -0,2 0,0 0,4 2,2 10 5 14 7 W 52 60 0,0
16.02.2019 12:00:00 10,5 -20,2 -0,2 0,0 0,4 2,2 8 5 14 7 W 75 60 0,0
16.02.2019 11:00:00 10,3 -22,3 -0,2 0,0 0,4 2,2 13 7 16 8 WSW 59 60 0,0
16.02.2019 10:00:00 10,2 -26,4 -0,2 0,0 0,4 2,2 13 7 19 11 WSW 48 60 0,0
16.02.2019 09:00:00 9,7 -24,9 -0,2 0,0 0,4 2,2 17 9 23 12 SW 75 60 0,0
16.02.2019 08:00:00 9,9 -21,7 -0,2 0,0 0,4 2,2 23 13 31 17 SW 75 1 0,0
16.02.2019 07:00:00 9,6 -18,2 -0,2 0,0 0,4 2,2 25 13 30 16 WSW 73 0 0,0
16.02.2019 06:00:00 9,3 -17,4 -0,2 0,0 0,4 2,2 23 12 29 16 WSW 72 0 0,0
16.02.2019 05:00:00 8,7 -16,0 -0,2 0,0 0,4 2,2 15 8 19 10 SW 75 0 0,0
16.02.2019 04:00:00 9,5 -18,1 -0,2 0,0 0,4 2,2 12 7 14 8 SSW 68 0 0,0
16.02.2019 03:00:00 10,4 -17,3 -0,2 0,0 0,4 2,2 6 4 11 6 E 75 0 0,0
16.02.2019 02:00:00 10,5 -18,7 -0,2 0,0 0,4 2,2 9 5 10 6 ENE 75 0 0,0
16.02.2019 01:00:00 10,0 -16,0 -0,2 0,0 0,4 2,2 0 0 10 5 N 75 0 0,0
16.02.2019 00:00:00 10,1 -17,3 -0,2 0,0 0,4 2,2 10 5 22 12 SSE 73 0 0,0
15.02.2019 23:00:00 10,0 -17,3 -0,2 0,0 0,4 2,2 18 10 24 13 ESE 72 0 0,0
15.02.2019 22:00:00 9,8 -17,3 -0,2 0,0 0,4 2,2 23 12 29 16 ESE 75 0 0,0
15.02.2019 21:00:00 8,8 -13,3 -0,2 0,0 0,4 2,2 28 15 38 20 ESE 75 0 0,0
15.02.2019 20:00:00 8,5 -13,1 -0,2 0,0 0,4 2,2 32 18 40 22 ESE 69 0 0,0
15.02.2019 19:00:00 9,3 -15,3 -0,2 0,0 0,4 2,2 37 20 42 23 ESE 63 0 0,0
15.02.2019 18:00:00 8,5 -18,5 -0,2 0,0 0,4 2,2 37 20 42 23 ESE 67 30 0,0
15.02.2019 17:00:00 9,3 -13,5 -0,2 0,0 0,4 2,2 26 14 31 17 SE 72 60 0,0
15.02.2019 16:00:00 10,1 -13,7 -0,2 0,0 0,4 2,2 27 15 37 20 SE 73 60 0,0
15.02.2019 15:00:00 9,4 -17,2 -0,2 0,0 0,4 2,2 33 18 39 21 ESE 75 60 0,0
15.02.2019 14:00:00 9,1 -15,2 -0,2 0,0 0,4 2,2 35 19 40 21 ESE 75 60 0,0
15.02.2019 13:00:00 9,6 -16,0 -0,2 0,0 0,4 2,2 35 19 40 21 ESE 75 60 0,0
15.02.2019 12:00:00 9,5 -17,0 -0,2 0,0 0,4 2,2 34 19 39 21 ESE 71 60 0,0
15.02.2019 11:00:00 9,7 -18,6 -0,2 0,0 0,4 2,2 33 18 39 21 ESE 48 60 0,0
15.02.2019 10:00:00 8,9 -18,0 -0,2 0,0 0,4 2,2 35 19 39 21 ESE 74 60 0,0
15.02.2019 09:00:00 8,6 -18,7 -0,2 0,0 0,4 2,2 39 21 41 22 ESE 57 59 0,0
15.02.2019 08:00:00 7,9 -19,1 -0,2 0,0 0,4 2,2 38 21 44 24 ESE 62 0 0,0
15.02.2019 07:00:00 7,2 -18,4 -0,2 0,0 0,4 2,2 40 22 44 24 ESE 75 0 0,0
15.02.2019 06:00:00 8,2 -21,0 -0,2 0,0 0,4 2,2 40 22 44 24 E 75 0 0,0
15.02.2019 05:00:00 6,4 -15,9 -0,2 0,0 0,4 2,2 40 22 45 24 ESE 67 0 0,0
15.02.2019 04:00:00 7,3 -17,3 -0,2 0,0 0,4 2,2 39 21 40 22 ESE 70 0 0,0
15.02.2019 03:00:00 5,3 -14,2 -0,2 0,0 0,4 2,2 33 18 45 24 E 75 0 0,0
15.02.2019 02:00:00 3,3 -6,8 -0,2 0,0 0,4 2,2 38 20 42 23 ESE 71 0 0,0
15.02.2019 01:00:00 6,7 -13,4 -0,2 0,0 0,4 2,2 28 15 31 17 E 73 0 0,0
15.02.2019 00:00:00 7,8 -16,6 -0,2 0,0 0,4 2,2 28 15 37 20 ESE 75 0 0,0
14.02.2019 23:00:00 6,6 -8,5 -0,2 0,0 0,4 2,2 35 19 37 20 ESE 73 0 0,0
14.02.2019 22:00:00 4,7 -7,4 -0,2 0,0 0,4 2,2 35 19 37 20 E 75 0 0,0
14.02.2019 21:00:00 5,8 -7,9 -0,2 0,0 0,4 2,2 24 13 29 15 E 75 0 0,0
14.02.2019 20:00:00 6,1 -8,1 -0,2 0,0 0,4 2,2 18 10 21 11 E 75 0 0,0
14.02.2019 19:00:00 6,4 -8,8 -0,2 0,0 0,4 2,2 16 9 22 12 E 75 0 0,0
14.02.2019 18:00:00 7,2 -8,3 -0,2 0,0 0,4 2,2 11 6 19 11 SE 75 29 0,0
14.02.2019 17:00:00 7,3 -6,3 -0,2 0,0 0,4 2,2 13 7 15 8 SSE 75 60 0,0
14.02.2019 16:00:00 8,0 -7,6 -0,2 0,0 0,4 2,2 9 5 14 8 SE 70 60 0,0
14.02.2019 15:00:00 8,1 -6,6 -0,2 0,0 0,4 2,2 11 6 14 7 SE 63 60 0,0
14.02.2019 14:00:00 7,5 -6,7 -0,2 0,0 0,4 2,2 10 6 16 9 ESE 72 60 0,0
14.02.2019 13:00:00 7,5 -6,2 -0,2 0,0 0,4 2,3 9 5 14 8 E 75 60 0,0
14.02.2019 12:00:00 7,6 -6,4 -0,2 0,0 0,4 2,3 8 4 11 6 ENE 75 60 0,0
14.02.2019 11:00:00 8,4 -5,6 -0,2 0,0 0,4 2,3 5 3 8 5 ENE 70 60 0,0
14.02.2019 10:00:00 8,2 -7,2 -0,2 0,0 0,4 2,2 4 2 10 6 E 75 60 0,0
14.02.2019 09:00:00 7,6 -7,8 -0,2 0,0 0,4 2,2 10 5 10 6 S 56 57 0,0
14.02.2019 08:00:00 7,3 -8,0 -0,2 0,0 0,4 2,2 9 5 13 7 S 75 0 0,0
14.02.2019 07:00:00 6,9 -8,1 -0,2 0,0 0,4 2,2 13 7 17 9 S 75 0 0,0
14.02.2019 06:00:00 6,1 -7,0 -0,2 0,0 0,4 2,2 17 9 23 12 S 75 0 0,0
14.02.2019 05:00:00 6,2 -7,0 -0,2 0,0 0,4 2,2 17 9 19 11 S 75 0 0,0
14.02.2019 04:00:00 5,9 -6,7 -0,2 0,0 0,4 2,2 17 9 23 12 S 75 0 0,0
14.02.2019 03:00:00 6,2 -6,8 -0,2 0,0 0,4 2,2 19 11 22 12 S 75 0 0,0
14.02.2019 02:00:00 5,8 -6,1 -0,2 0,0 0,4 2,2 15 8 23 12 SSE 75 0 0,0
14.02.2019 01:00:00 5,4 -6,0 -0,2 0,0 0,4 2,2 16 9 19 10 SSE 75 0 0,0
14.02.2019 00:00:00 5,4 -6,2 -0,2 0,0 0,4 2,2 16 9 22 12 SSE 75 0 0,0
13.02.2019 23:00:00 5,0 -6,2 -0,2 0,0 0,4 2,2 18 10 20 11 SSE 75 0 0,0
13.02.2019 22:00:00 5,1 -6,2 -0,2 0,0 0,4 2,2 13 7 19 11 SSE 75 0 0,0
13.02.2019 21:00:00 5,1 -5,8 -0,2 0,0 0,4 2,2 19 10 26 14 SSE 75 0 0,0
13.02.2019 20:00:00 4,2 -7,3 -0,2 0,0 0,4 2,2 23 12 27 14 SE 67 0 0,0
13.02.2019 19:00:00 4,4 -5,0 -0,2 0,0 0,4 2,2 26 14 31 17 ESE 75 0 0,0
13.02.2019 18:00:00 3,5 -5,6 -0,2 0,0 0,4 2,2 23 13 29 16 ESE 75 26 0,0
13.02.2019 17:00:00 3,3 -7,2 -0,2 0,0 0,4 2,2 24 13 30 16 SE 75 60 0,0
13.02.2019 16:00:00 2,8 -12,2 -0,2 0,0 0,4 2,2 22 12 31 17 SSE 75 60 0,0
13.02.2019 15:00:00 2,4 -9,8 -0,2 0,0 0,4 2,2 21 11 27 15 SE 58 60 0,0
13.02.2019 14:00:00 2,0 -9,9 -0,2 0,0 0,4 2,2 19 10 26 14 SE 57 60 0,0
13.02.2019 13:00:00 2,1 -18,3 -0,2 0,0 0,4 2,2 23 12 29 16 ESE 75 60 0,0
13.02.2019 12:00:00 1,6 -16,7 -0,2 0,0 0,4 2,2 29 15 36 20 ESE 44 60 0,0
13.02.2019 11:00:00 1,1 -20,6 -0,2 0,0 0,4 2,2 36 19 41 22 ESE 47 60 0,0
13.02.2019 10:00:00 -0,3 -14,7 -0,2 0,0 0,4 2,2 39 21 44 24 ESE 53 60 0,0
13.02.2019 09:00:00 -0,2 -13,5 -0,2 0,0 0,4 2,2 40 22 47 25 E 26 55 0,0
13.02.2019 08:00:00 -0,6 -8,5 -0,2 0,0 0,4 2,2 42 23 47 25 E 75 0 0,0
13.02.2019 07:00:00 -1,4 -6,5 -0,2 0,0 0,4 2,2 31 17 38 21 ENE 75 0 0,0
13.02.2019 06:00:00 -2,2 -8,0 -0,2 0,0 0,4 2,2 22 12 27 15 E 75 0 0,0
13.02.2019 05:00:00 -2,8 -8,0 -0,2 0,0 0,4 2,2 23 13 26 14 E 74 0 0,0
13.02.2019 04:00:00 -3,2 -7,9 -0,2 0,0 0,4 2,2 18 10 24 13 ENE 75 0 0,0
13.02.2019 03:00:00 -3,9 -9,3 -0,2 0,0 0,4 2,2 21 11 25 13 NE 73 0 0,0
13.02.2019 02:00:00 -4,0 -8,3 -0,2 0,0 0,4 2,2 17 9 25 14 ENE 75 0 0,0
13.02.2019 01:00:00 -5,6 -12,4 -0,2 0,0 0,4 2,2 19 10 23 13 E 71 0 0,0
13.02.2019 00:00:00 -7,1 -12,9 -0,2 0,0 0,4 2,2 23 12 33 18 ESE 75 0 0,0
12.02.2019 23:00:00 -6,9 -8,5 -0,2 0,0 0,4 2,2 30 16 48 26 E 47 0 0,0
12.02.2019 22:00:00 -6,4 -7,8 -0,2 0,0 0,4 2,2 45 25 56 31 E 58 0 0,0
12.02.2019 21:00:00 -6,6 -7,7 -0,3 0,0 0,4 2,2 38 20 46 25 ENE 36 0 0,0
12.02.2019 20:00:00 -6,5 -7,1 -0,2 0,0 0,4 2,2 34 19 39 21 NE 37 0 0,0
12.02.2019 19:00:00 -6,1 -6,6 -0,2 0,0 0,4 2,2 19 11 24 13 N 0,6 0 0,0
12.02.2019 18:00:00 -6,0 -6,6 -0,2 0,0 0,4 2,2 16 9 27 15 NNW 21 0 0,0
12.02.2019 17:00:00 -5,5 -5,9 -0,2 0,0 0,4 2,2 18 10 23 12 NNW 0,1 0 0,0

tt = Température de l'air
td = dewpoint
tt 5cm = Température de l'air 5cm
tt -5cm = Température de l'air -5cm
tt -20cm = Température de l'air -20cm
tt -100cm = Température de l'air -100cm
ff = Vitesse du vent
fx = gusts
dd = Direction du vent
vv = visibility
sd = Ensoleillement
rr = Quantités de précipitations

stations d'obs. à proximité